Canefield Airport

Cloudy with adjacent showers and slight dust haze
28oC (82oF)

Cloudy with adjacent showers and slight dust haze


Winds: Variable @ 02kts / 04km/h

Humidity: 81%

Barometric Pressure: 1012 mb

Accumulated Rainfall for June: 89.5 mm

Updated: 16:00 local time (20:00 UTC)

Douglas-Charles Airport

Cloudy with light showers
27oC (81oF)

Cloudy with light showers


Winds: East south easterly @ 03kts / 06km/h

Humidity: 97%

Barometric Pressure: 1016 mb

Accumulated Rainfall for June: 164.6 mm

Updated: 21:00 local time (01:00 UTC)

Satellite Imagery

Satellite Imagery
Click image for larger view.
(Source: National Hurricane Center).

Aviation Routine Report (METAR)

Douglas-Charles: METAR TDPD 240100Z 12003KT 9999 VCSH SCT014 SCT///CB 27/27 Q1016=
Canefield: METAR TDCF 232000Z VRB02KT 9999 BKN014TCU FEW///CB 29/25 Q1012=